sensor_id;sensor_type;location;lat;lon;timestamp;P1;durP1;ratioP1;P2;durP2;ratioP2
21162;SDS011;10739;52.198;20.908;2023-08-06T00:00:28;59.88;;;28.80;;
21162;SDS011;10739;52.198;20.908;2023-08-06T00:02:54;60.40;;;26.75;;
21162;SDS011;10739;52.198;20.908;2023-08-06T00:05:20;57.55;;;28.48;;
21162;SDS011;10739;52.198;20.908;2023-08-06T00:07:47;71.82;;;29.40;;
21162;SDS011;10739;52.198;20.908;2023-08-06T00:10:14;58.00;;;27.35;;
21162;SDS011;10739;52.198;20.908;2023-08-06T00:12:41;55.63;;;28.50;;
21162;SDS011;10739;52.198;20.908;2023-08-06T00:15:09;64.55;;;29.58;;
21162;SDS011;10739;52.198;20.908;2023-08-06T00:17:36;67.50;;;31.48;;
21162;SDS011;10739;52.198;20.908;2023-08-06T00:20:03;63.63;;;28.70;;
21162;SDS011;10739;52.198;20.908;2023-08-06T00:22:32;64.47;;;29.80;;
21162;SDS011;10739;52.198;20.908;2023-08-06T00:25:03;58.88;;;29.70;;
21162;SDS011;10739;52.198;20.908;2023-08-06T00:27:31;50.13;;;28.80;;
21162;SDS011;10739;52.198;20.908;2023-08-06T00:29:58;53.45;;;28.15;;
21162;SDS011;10739;52.198;20.908;2023-08-06T00:32:24;52.88;;;28.88;;
21162;SDS011;10739;52.198;20.908;2023-08-06T00:34:50;48.63;;;27.92;;
21162;SDS011;10739;52.198;20.908;2023-08-06T00:37:17;52.55;;;29.52;;
21162;SDS011;10739;52.198;20.908;2023-08-06T00:39:47;45.67;;;27.13;;
21162;SDS011;10739;52.198;20.908;2023-08-06T00:42:13;40.90;;;27.33;;
21162;SDS011;10739;52.198;20.908;2023-08-06T00:44:41;44.10;;;26.50;;
21162;SDS011;10739;52.198;20.908;2023-08-06T00:47:09;43.80;;;25.95;;
21162;SDS011;10739;52.198;20.908;2023-08-06T00:49:36;37.10;;;24.65;;
21162;SDS011;10739;52.198;20.908;2023-08-06T00:52:03;40.97;;;26.63;;
21162;SDS011;10739;52.198;20.908;2023-08-06T00:54:32;32.85;;;23.67;;
21162;SDS011;10739;52.198;20.908;2023-08-06T00:57:01;35.92;;;23.95;;
21162;SDS011;10739;52.198;20.908;2023-08-06T00:59:29;35.97;;;22.88;;
21162;SDS011;10739;52.198;20.908;2023-08-06T01:01:57;32.33;;;23.08;;
21162;SDS011;10739;52.198;20.908;2023-08-06T01:04:23;32.80;;;22.35;;
21162;SDS011;10739;52.198;20.908;2023-08-06T01:07:01;34.10;;;21.90;;
21162;SDS011;10739;52.198;20.908;2023-08-06T01:09:39;29.90;;;21.70;;
21162;SDS011;10739;52.198;20.908;2023-08-06T01:17:49;29.33;;;21.92;;
21162;SDS011;10739;52.198;20.908;2023-08-06T01:20:16;31.73;;;23.42;;
21162;SDS011;10739;52.198;20.908;2023-08-06T01:22:42;33.58;;;23.52;;
21162;SDS011;10739;52.198;20.908;2023-08-06T01:25:08;31.85;;;23.25;;
21162;SDS011;10739;52.198;20.908;2023-08-06T01:27:43;34.72;;;24.63;;
21162;SDS011;10739;52.198;20.908;2023-08-06T01:30:13;37.03;;;25.85;;
21162;SDS011;10739;52.198;20.908;2023-08-06T01:35:16;36.78;;;25.20;;
21162;SDS011;10739;52.198;20.908;2023-08-06T01:37:45;35.80;;;24.60;;
21162;SDS011;10739;52.198;20.908;2023-08-06T01:40:13;34.17;;;23.17;;
21162;SDS011;10739;52.198;20.908;2023-08-06T01:42:39;37.42;;;23.77;;
21162;SDS011;10739;52.198;20.908;2023-08-06T01:45:06;31.75;;;23.33;;
21162;SDS011;10739;52.198;20.908;2023-08-06T01:47:34;32.38;;;22.30;;
21162;SDS011;10739;52.198;20.908;2023-08-06T01:50:01;36.00;;;23.20;;
21162;SDS011;10739;52.198;20.908;2023-08-06T01:52:27;33.15;;;22.27;;
21162;SDS011;10739;52.198;20.908;2023-08-06T01:54:54;32.90;;;23.50;;
21162;SDS011;10739;52.198;20.908;2023-08-06T01:57:20;27.40;;;21.45;;
21162;SDS011;10739;52.198;20.908;2023-08-06T01:59:47;28.80;;;22.52;;
21162;SDS011;10739;52.198;20.908;2023-08-06T02:02:13;26.80;;;20.67;;
21162;SDS011;10739;52.198;20.908;2023-08-06T02:04:39;26.65;;;21.08;;
21162;SDS011;10739;52.198;20.908;2023-08-06T02:07:05;26.30;;;20.55;;
21162;SDS011;10739;52.198;20.908;2023-08-06T02:09:31;31.25;;;20.85;;
21162;SDS011;10739;52.198;20.908;2023-08-06T02:11:58;24.98;;;19.60;;
21162;SDS011;10739;52.198;20.908;2023-08-06T02:14:24;26.05;;;20.10;;
21162;SDS011;10739;52.198;20.908;2023-08-06T02:16:50;24.88;;;19.85;;
21162;SDS011;10739;52.198;20.908;2023-08-06T02:19:16;25.40;;;18.40;;
21162;SDS011;10739;52.198;20.908;2023-08-06T02:21:42;27.25;;;18.73;;
21162;SDS011;10739;52.198;20.908;2023-08-06T02:24:08;26.60;;;18.52;;
21162;SDS011;10739;52.198;20.908;2023-08-06T02:26:34;27.42;;;19.77;;
21162;SDS011;10739;52.198;20.908;2023-08-06T02:29:00;28.38;;;19.48;;
21162;SDS011;10739;52.198;20.908;2023-08-06T02:31:26;28.23;;;19.48;;
21162;SDS011;10739;52.198;20.908;2023-08-06T02:33:52;28.27;;;18.30;;
21162;SDS011;10739;52.198;20.908;2023-08-06T02:36:19;27.88;;;17.23;;
21162;SDS011;10739;52.198;20.908;2023-08-06T02:38:45;22.65;;;18.40;;
21162;SDS011;10739;52.198;20.908;2023-08-06T02:41:12;26.25;;;18.60;;
21162;SDS011;10739;52.198;20.908;2023-08-06T02:43:38;25.77;;;17.50;;
21162;SDS011;10739;52.198;20.908;2023-08-06T02:46:04;27.50;;;19.15;;
21162;SDS011;10739;52.198;20.908;2023-08-06T02:48:30;25.35;;;17.50;;
21162;SDS011;10739;52.198;20.908;2023-08-06T02:50:57;24.90;;;18.08;;
21162;SDS011;10739;52.198;20.908;2023-08-06T02:53:24;23.67;;;18.50;;
21162;SDS011;10739;52.198;20.908;2023-08-06T02:55:51;26.80;;;18.67;;
21162;SDS011;10739;52.198;20.908;2023-08-06T02:58:17;23.60;;;17.67;;
21162;SDS011;10739;52.198;20.908;2023-08-06T03:00:58;25.30;;;18.48;;
21162;SDS011;10739;52.198;20.908;2023-08-06T03:03:32;23.65;;;18.38;;
21162;SDS011;10739;52.198;20.908;2023-08-06T03:05:59;22.30;;;17.73;;
21162;SDS011;10739;52.198;20.908;2023-08-06T03:08:26;23.10;;;18.50;;
21162;SDS011;10739;52.198;20.908;2023-08-06T03:10:53;24.90;;;17.98;;
21162;SDS011;10739;52.198;20.908;2023-08-06T03:13:19;21.02;;;17.65;;
21162;SDS011;10739;52.198;20.908;2023-08-06T03:15:52;27.23;;;19.92;;
21162;SDS011;10739;52.198;20.908;2023-08-06T03:18:24;28.52;;;18.48;;
21162;SDS011;10739;52.198;20.908;2023-08-06T03:20:54;27.20;;;18.60;;
21162;SDS011;10739;52.198;20.908;2023-08-06T03:23:20;26.42;;;18.35;;
21162;SDS011;10739;52.198;20.908;2023-08-06T03:25:47;24.75;;;18.65;;
21162;SDS011;10739;52.198;20.908;2023-08-06T03:28:12;25.80;;;19.02;;
21162;SDS011;10739;52.198;20.908;2023-08-06T03:30:39;24.60;;;19.25;;
21162;SDS011;10739;52.198;20.908;2023-08-06T03:33:05;24.80;;;19.70;;
21162;SDS011;10739;52.198;20.908;2023-08-06T03:35:31;27.15;;;19.90;;
21162;SDS011;10739;52.198;20.908;2023-08-06T03:37:57;30.65;;;21.25;;
21162;SDS011;10739;52.198;20.908;2023-08-06T03:40:23;26.00;;;20.17;;
21162;SDS011;10739;52.198;20.908;2023-08-06T03:42:49;29.48;;;20.25;;
21162;SDS011;10739;52.198;20.908;2023-08-06T03:45:15;27.02;;;21.33;;
21162;SDS011;10739;52.198;20.908;2023-08-06T03:47:41;30.65;;;21.98;;
21162;SDS011;10739;52.198;20.908;2023-08-06T03:50:08;29.58;;;21.85;;
21162;SDS011;10739;52.198;20.908;2023-08-06T03:52:34;29.83;;;22.38;;
21162;SDS011;10739;52.198;20.908;2023-08-06T03:55:00;34.67;;;25.13;;
21162;SDS011;10739;52.198;20.908;2023-08-06T03:57:26;35.08;;;24.98;;
21162;SDS011;10739;52.198;20.908;2023-08-06T03:59:52;35.55;;;25.73;;
21162;SDS011;10739;52.198;20.908;2023-08-06T04:02:18;35.88;;;26.20;;
21162;SDS011;10739;52.198;20.908;2023-08-06T04:04:44;35.05;;;25.55;;
21162;SDS011;10739;52.198;20.908;2023-08-06T04:07:10;32.47;;;23.67;;
21162;SDS011;10739;52.198;20.908;2023-08-06T04:09:56;34.55;;;25.00;;
21162;SDS011;10739;52.198;20.908;2023-08-06T04:12:24;28.48;;;23.67;;
21162;SDS011;10739;52.198;20.908;2023-08-06T04:14:52;30.70;;;23.80;;
21162;SDS011;10739;52.198;20.908;2023-08-06T04:17:19;34.70;;;24.67;;
21162;SDS011;10739;52.198;20.908;2023-08-06T04:19:55;27.60;;;23.33;;
21162;SDS011;10739;52.198;20.908;2023-08-06T04:22:24;34.13;;;23.27;;
21162;SDS011;10739;52.198;20.908;2023-08-06T04:24:51;27.80;;;23.48;;
21162;SDS011;10739;52.198;20.908;2023-08-06T04:27:17;34.60;;;24.75;;
21162;SDS011;10739;52.198;20.908;2023-08-06T04:29:45;32.25;;;24.65;;
21162;SDS011;10739;52.198;20.908;2023-08-06T04:32:11;30.98;;;25.95;;
21162;SDS011;10739;52.198;20.908;2023-08-06T04:34:38;32.15;;;24.17;;
21162;SDS011;10739;52.198;20.908;2023-08-06T04:37:04;31.67;;;26.42;;
21162;SDS011;10739;52.198;20.908;2023-08-06T04:39:30;31.15;;;25.52;;
21162;SDS011;10739;52.198;20.908;2023-08-06T04:41:57;29.80;;;25.25;;
21162;SDS011;10739;52.198;20.908;2023-08-06T04:44:22;30.02;;;25.38;;
21162;SDS011;10739;52.198;20.908;2023-08-06T04:46:49;33.47;;;24.40;;
21162;SDS011;10739;52.198;20.908;2023-08-06T04:49:15;29.30;;;23.77;;
21162;SDS011;10739;52.198;20.908;2023-08-06T04:51:42;27.98;;;23.02;;
21162;SDS011;10739;52.198;20.908;2023-08-06T04:54:08;29.33;;;23.45;;
21162;SDS011;10739;52.198;20.908;2023-08-06T04:56:35;28.05;;;22.58;;
21162;SDS011;10739;52.198;20.908;2023-08-06T04:59:01;24.75;;;21.33;;
21162;SDS011;10739;52.198;20.908;2023-08-06T05:01:27;27.80;;;21.05;;
21162;SDS011;10739;52.198;20.908;2023-08-06T05:03:54;34.13;;;21.75;;
21162;SDS011;10739;52.198;20.908;2023-08-06T05:06:20;24.13;;;20.15;;
21162;SDS011;10739;52.198;20.908;2023-08-06T05:08:46;22.27;;;19.98;;
21162;SDS011;10739;52.198;20.908;2023-08-06T05:11:12;23.73;;;20.48;;
21162;SDS011;10739;52.198;20.908;2023-08-06T05:13:38;22.45;;;19.00;;
21162;SDS011;10739;52.198;20.908;2023-08-06T05:16:04;22.63;;;19.23;;
21162;SDS011;10739;52.198;20.908;2023-08-06T05:18:31;24.17;;;17.80;;
21162;SDS011;10739;52.198;20.908;2023-08-06T05:20:59;21.75;;;18.30;;
21162;SDS011;10739;52.198;20.908;2023-08-06T05:23:25;21.60;;;17.80;;
21162;SDS011;10739;52.198;20.908;2023-08-06T05:25:52;21.45;;;17.38;;
21162;SDS011;10739;52.198;20.908;2023-08-06T05:28:18;20.33;;;16.10;;
21162;SDS011;10739;52.198;20.908;2023-08-06T05:30:44;18.58;;;16.23;;
21162;SDS011;10739;52.198;20.908;2023-08-06T05:33:10;23.83;;;16.83;;
21162;SDS011;10739;52.198;20.908;2023-08-06T05:35:36;17.98;;;14.88;;
21162;SDS011;10739;52.198;20.908;2023-08-06T05:38:03;17.50;;;14.95;;
21162;SDS011;10739;52.198;20.908;2023-08-06T05:40:29;19.77;;;14.60;;
21162;SDS011;10739;52.198;20.908;2023-08-06T05:42:55;15.50;;;13.88;;
21162;SDS011;10739;52.198;20.908;2023-08-06T05:45:24;19.33;;;14.40;;
21162;SDS011;10739;52.198;20.908;2023-08-06T05:47:52;14.93;;;13.43;;
21162;SDS011;10739;52.198;20.908;2023-08-06T05:50:20;20.13;;;13.23;;
21162;SDS011;10739;52.198;20.908;2023-08-06T05:52:47;13.98;;;12.32;;
21162;SDS011;10739;52.198;20.908;2023-08-06T05:55:13;14.80;;;13.25;;
21162;SDS011;10739;52.198;20.908;2023-08-06T05:57:39;14.05;;;12.35;;
21162;SDS011;10739;52.198;20.908;2023-08-06T06:00:05;15.75;;;12.50;;
21162;SDS011;10739;52.198;20.908;2023-08-06T06:02:33;14.10;;;11.95;;
21162;SDS011;10739;52.198;20.908;2023-08-06T06:04:59;12.80;;;11.05;;
21162;SDS011;10739;52.198;20.908;2023-08-06T06:07:25;16.92;;;10.93;;
21162;SDS011;10739;52.198;20.908;2023-08-06T06:09:51;29.65;;;11.10;;
21162;SDS011;10739;52.198;20.908;2023-08-06T06:12:17;17.60;;;11.20;;
21162;SDS011;10739;52.198;20.908;2023-08-06T06:14:44;13.00;;;10.10;;
21162;SDS011;10739;52.198;20.908;2023-08-06T06:17:10;19.17;;;10.90;;
21162;SDS011;10739;52.198;20.908;2023-08-06T06:19:36;16.58;;;9.82;;
21162;SDS011;10739;52.198;20.908;2023-08-06T06:22:02;14.13;;;9.98;;
21162;SDS011;10739;52.198;20.908;2023-08-06T06:24:28;13.45;;;10.48;;
21162;SDS011;10739;52.198;20.908;2023-08-06T06:26:55;17.70;;;9.95;;
21162;SDS011;10739;52.198;20.908;2023-08-06T06:29:21;11.15;;;9.75;;
21162;SDS011;10739;52.198;20.908;2023-08-06T06:31:47;12.88;;;9.75;;
21162;SDS011;10739;52.198;20.908;2023-08-06T06:34:13;17.48;;;10.18;;
21162;SDS011;10739;52.198;20.908;2023-08-06T06:36:40;13.07;;;10.00;;
21162;SDS011;10739;52.198;20.908;2023-08-06T06:39:06;14.38;;;10.00;;
21162;SDS011;10739;52.198;20.908;2023-08-06T06:41:33;10.80;;;9.27;;
21162;SDS011;10739;52.198;20.908;2023-08-06T06:43:59;14.15;;;9.32;;
21162;SDS011;10739;52.198;20.908;2023-08-06T06:46:25;17.92;;;9.88;;
21162;SDS011;10739;52.198;20.908;2023-08-06T06:48:52;11.80;;;9.80;;
21162;SDS011;10739;52.198;20.908;2023-08-06T06:51:18;11.98;;;9.80;;
21162;SDS011;10739;52.198;20.908;2023-08-06T06:53:44;12.93;;;9.18;;
21162;SDS011;10739;52.198;20.908;2023-08-06T06:56:10;15.82;;;8.82;;
21162;SDS011;10739;52.198;20.908;2023-08-06T06:58:36;15.70;;;8.45;;
21162;SDS011;10739;52.198;20.908;2023-08-06T07:01:04;15.73;;;8.73;;
21162;SDS011;10739;52.198;20.908;2023-08-06T07:03:30;20.55;;;9.23;;
21162;SDS011;10739;52.198;20.908;2023-08-06T07:05:59;13.63;;;9.02;;
21162;SDS011;10739;52.198;20.908;2023-08-06T07:08:25;21.85;;;9.00;;
21162;SDS011;10739;52.198;20.908;2023-08-06T07:10:59;13.80;;;9.35;;
21162;SDS011;10739;52.198;20.908;2023-08-06T07:13:28;16.05;;;8.85;;
21162;SDS011;10739;52.198;20.908;2023-08-06T07:15:55;13.38;;;9.60;;
21162;SDS011;10739;52.198;20.908;2023-08-06T07:18:22;12.18;;;9.18;;
21162;SDS011;10739;52.198;20.908;2023-08-06T07:20:52;9.98;;;8.30;;
21162;SDS011;10739;52.198;20.908;2023-08-06T07:23:22;15.98;;;8.90;;
21162;SDS011;10739;52.198;20.908;2023-08-06T07:25:51;16.65;;;8.35;;
21162;SDS011;10739;52.198;20.908;2023-08-06T07:28:17;9.60;;;8.50;;
21162;SDS011;10739;52.198;20.908;2023-08-06T07:30:44;12.02;;;9.10;;
21162;SDS011;10739;52.198;20.908;2023-08-06T07:33:11;14.57;;;9.02;;
21162;SDS011;10739;52.198;20.908;2023-08-06T07:35:38;16.58;;;8.63;;
21162;SDS011;10739;52.198;20.908;2023-08-06T07:38:04;15.85;;;9.10;;
21162;SDS011;10739;52.198;20.908;2023-08-06T07:40:31;10.98;;;8.60;;
21162;SDS011;10739;52.198;20.908;2023-08-06T07:42:57;10.00;;;8.25;;
21162;SDS011;10739;52.198;20.908;2023-08-06T07:45:24;17.33;;;9.30;;
21162;SDS011;10739;52.198;20.908;2023-08-06T07:47:52;11.68;;;8.85;;
21162;SDS011;10739;52.198;20.908;2023-08-06T07:50:18;16.20;;;8.05;;
21162;SDS011;10739;52.198;20.908;2023-08-06T07:52:44;17.13;;;8.05;;
21162;SDS011;10739;52.198;20.908;2023-08-06T07:55:10;11.30;;;8.00;;
21162;SDS011;10739;52.198;20.908;2023-08-06T07:57:36;14.00;;;8.18;;
21162;SDS011;10739;52.198;20.908;2023-08-06T08:00:03;14.00;;;8.55;;
21162;SDS011;10739;52.198;20.908;2023-08-06T08:02:30;15.20;;;7.82;;
21162;SDS011;10739;52.198;20.908;2023-08-06T08:04:56;11.40;;;8.32;;
21162;SDS011;10739;52.198;20.908;2023-08-06T08:07:23;15.80;;;8.35;;
21162;SDS011;10739;52.198;20.908;2023-08-06T08:09:49;11.55;;;8.32;;
21162;SDS011;10739;52.198;20.908;2023-08-06T08:12:15;15.82;;;8.60;;
21162;SDS011;10739;52.198;20.908;2023-08-06T08:14:41;13.38;;;8.43;;
21162;SDS011;10739;52.198;20.908;2023-08-06T08:17:10;16.23;;;8.85;;
21162;SDS011;10739;52.198;20.908;2023-08-06T08:19:37;11.80;;;7.32;;
21162;SDS011;10739;52.198;20.908;2023-08-06T08:22:03;13.07;;;8.40;;
21162;SDS011;10739;52.198;20.908;2023-08-06T08:24:29;14.90;;;8.73;;
21162;SDS011;10739;52.198;20.908;2023-08-06T08:26:56;10.68;;;7.78;;
21162;SDS011;10739;52.198;20.908;2023-08-06T08:29:22;18.00;;;7.95;;
21162;SDS011;10739;52.198;20.908;2023-08-06T08:31:48;13.02;;;7.80;;
21162;SDS011;10739;52.198;20.908;2023-08-06T08:34:16;12.43;;;7.63;;
21162;SDS011;10739;52.198;20.908;2023-08-06T08:36:43;12.25;;;7.55;;
21162;SDS011;10739;52.198;20.908;2023-08-06T08:39:12;9.77;;;7.70;;
21162;SDS011;10739;52.198;20.908;2023-08-06T08:41:39;16.10;;;7.78;;
21162;SDS011;10739;52.198;20.908;2023-08-06T08:44:08;16.10;;;7.78;;
21162;SDS011;10739;52.198;20.908;2023-08-06T08:49:06;15.38;;;7.57;;
21162;SDS011;10739;52.198;20.908;2023-08-06T08:51:33;13.48;;;8.07;;
21162;SDS011;10739;52.198;20.908;2023-08-06T08:54:03;15.57;;;7.50;;
21162;SDS011;10739;52.198;20.908;2023-08-06T08:56:30;11.73;;;7.43;;
21162;SDS011;10739;52.198;20.908;2023-08-06T08:58:57;16.88;;;7.55;;
21162;SDS011;10739;52.198;20.908;2023-08-06T09:01:24;14.18;;;7.22;;
21162;SDS011;10739;52.198;20.908;2023-08-06T09:03:53;14.07;;;7.72;;
21162;SDS011;10739;52.198;20.908;2023-08-06T09:06:23;9.85;;;7.45;;
21162;SDS011;10739;52.198;20.908;2023-08-06T09:09:35;19.02;;;7.55;;
21162;SDS011;10739;52.198;20.908;2023-08-06T09:12:12;9.98;;;6.93;;
21162;SDS011;10739;52.198;20.908;2023-08-06T09:14:41;12.82;;;7.57;;
21162;SDS011;10739;52.198;20.908;2023-08-06T09:17:09;15.60;;;7.13;;
21162;SDS011;10739;52.198;20.908;2023-08-06T09:19:42;12.45;;;6.97;;
21162;SDS011;10739;52.198;20.908;2023-08-06T09:22:16;10.88;;;6.82;;
21162;SDS011;10739;52.198;20.908;2023-08-06T09:24:43;12.05;;;7.15;;
21162;SDS011;10739;52.198;20.908;2023-08-06T09:27:12;9.43;;;6.93;;
21162;SDS011;10739;52.198;20.908;2023-08-06T09:29:40;9.45;;;6.32;;
21162;SDS011;10739;52.198;20.908;2023-08-06T09:32:08;10.45;;;6.75;;
21162;SDS011;10739;52.198;20.908;2023-08-06T09:34:35;9.95;;;6.55;;
21162;SDS011;10739;52.198;20.908;2023-08-06T09:37:05;9.35;;;6.07;;
21162;SDS011;10739;52.198;20.908;2023-08-06T09:39:31;10.57;;;6.22;;
21162;SDS011;10739;52.198;20.908;2023-08-06T09:41:58;7.18;;;5.80;;
21162;SDS011;10739;52.198;20.908;2023-08-06T09:44:27;15.13;;;6.32;;
21162;SDS011;10739;52.198;20.908;2023-08-06T09:46:58;14.75;;;6.50;;
21162;SDS011;10739;52.198;20.908;2023-08-06T09:52:12;13.70;;;6.20;;
21162;SDS011;10739;52.198;20.908;2023-08-06T09:54:39;12.35;;;6.30;;
21162;SDS011;10739;52.198;20.908;2023-08-06T09:57:05;9.20;;;6.15;;
21162;SDS011;10739;52.198;20.908;2023-08-06T09:59:33;7.15;;;5.68;;
21162;SDS011;10739;52.198;20.908;2023-08-06T10:02:00;10.18;;;5.55;;
21162;SDS011;10739;52.198;20.908;2023-08-06T10:04:37;12.07;;;5.65;;
21162;SDS011;10739;52.198;20.908;2023-08-06T10:07:03;13.68;;;5.03;;
21162;SDS011;10739;52.198;20.908;2023-08-06T10:09:30;12.18;;;5.65;;
21162;SDS011;10739;52.198;20.908;2023-08-06T10:11:56;8.57;;;5.70;;
21162;SDS011;10739;52.198;20.908;2023-08-06T10:14:25;9.18;;;5.55;;
21162;SDS011;10739;52.198;20.908;2023-08-06T10:17:02;9.63;;;5.43;;
21162;SDS011;10739;52.198;20.908;2023-08-06T10:19:29;11.00;;;5.38;;
21162;SDS011;10739;52.198;20.908;2023-08-06T10:22:12;8.25;;;5.03;;
21162;SDS011;10739;52.198;20.908;2023-08-06T10:28:00;8.40;;;5.00;;
21162;SDS011;10739;52.198;20.908;2023-08-06T10:30:41;15.85;;;5.35;;
21162;SDS011;10739;52.198;20.908;2023-08-06T10:33:12;17.80;;;5.50;;
21162;SDS011;10739;52.198;20.908;2023-08-06T10:35:45;10.50;;;5.40;;
21162;SDS011;10739;52.198;20.908;2023-08-06T10:38:15;13.93;;;5.38;;
21162;SDS011;10739;52.198;20.908;2023-08-06T10:45:54;8.23;;;4.93;;
21162;SDS011;10739;52.198;20.908;2023-08-06T10:48:33;8.70;;;5.38;;
21162;SDS011;10739;52.198;20.908;2023-08-06T10:51:02;13.18;;;5.25;;
21162;SDS011;10739;52.198;20.908;2023-08-06T10:53:33;9.68;;;5.50;;
21162;SDS011;10739;52.198;20.908;2023-08-06T10:55:59;10.23;;;5.22;;
21162;SDS011;10739;52.198;20.908;2023-08-06T10:58:33;11.93;;;5.40;;
21162;SDS011;10739;52.198;20.908;2023-08-06T11:00:59;8.60;;;5.70;;
21162;SDS011;10739;52.198;20.908;2023-08-06T11:03:26;14.85;;;5.40;;
21162;SDS011;10739;52.198;20.908;2023-08-06T11:05:53;12.55;;;5.10;;
21162;SDS011;10739;52.198;20.908;2023-08-06T11:08:26;9.63;;;5.72;;
21162;SDS011;10739;52.198;20.908;2023-08-06T11:10:53;10.55;;;5.20;;
21162;SDS011;10739;52.198;20.908;2023-08-06T11:13:21;7.55;;;5.40;;
21162;SDS011;10739;52.198;20.908;2023-08-06T11:15:47;6.65;;;5.60;;
21162;SDS011;10739;52.198;20.908;2023-08-06T11:18:13;12.50;;;5.15;;
21162;SDS011;10739;52.198;20.908;2023-08-06T11:20:39;7.88;;;4.90;;
21162;SDS011;10739;52.198;20.908;2023-08-06T11:23:06;7.40;;;5.30;;
21162;SDS011;10739;52.198;20.908;2023-08-06T11:25:36;5.40;;;4.57;;
21162;SDS011;10739;52.198;20.908;2023-08-06T11:28:09;11.07;;;4.90;;
21162;SDS011;10739;52.198;20.908;2023-08-06T11:30:35;11.13;;;4.90;;
21162;SDS011;10739;52.198;20.908;2023-08-06T11:33:06;11.85;;;4.32;;
21162;SDS011;10739;52.198;20.908;2023-08-06T11:35:37;12.35;;;4.72;;
21162;SDS011;10739;52.198;20.908;2023-08-06T11:38:05;6.43;;;4.43;;
21162;SDS011;10739;52.198;20.908;2023-08-06T11:40:32;7.25;;;4.05;;
21162;SDS011;10739;52.198;20.908;2023-08-06T11:43:01;15.00;;;4.85;;
21162;SDS011;10739;52.198;20.908;2023-08-06T11:45:27;7.00;;;4.45;;
21162;SDS011;10739;52.198;20.908;2023-08-06T11:47:55;8.73;;;4.57;;
21162;SDS011;10739;52.198;20.908;2023-08-06T11:50:27;5.70;;;4.88;;
21162;SDS011;10739;52.198;20.908;2023-08-06T11:52:58;10.60;;;4.30;;
21162;SDS011;10739;52.198;20.908;2023-08-06T11:55:26;9.63;;;4.30;;
21162;SDS011;10739;52.198;20.908;2023-08-06T11:57:54;11.32;;;4.63;;
21162;SDS011;10739;52.198;20.908;2023-08-06T12:00:25;13.82;;;4.20;;
21162;SDS011;10739;52.198;20.908;2023-08-06T12:02:52;6.88;;;4.07;;
21162;SDS011;10739;52.198;20.908;2023-08-06T12:05:20;17.08;;;4.63;;
21162;SDS011;10739;52.198;20.908;2023-08-06T12:07:52;7.53;;;4.10;;
21162;SDS011;10739;52.198;20.908;2023-08-06T12:10:21;8.75;;;4.65;;
21162;SDS011;10739;52.198;20.908;2023-08-06T12:12:50;8.80;;;4.15;;
21162;SDS011;10739;52.198;20.908;2023-08-06T12:15:17;7.32;;;4.80;;
21162;SDS011;10739;52.198;20.908;2023-08-06T12:17:43;4.95;;;4.30;;
21162;SDS011;10739;52.198;20.908;2023-08-06T12:20:10;8.80;;;4.28;;
21162;SDS011;10739;52.198;20.908;2023-08-06T12:22:36;10.35;;;4.05;;
21162;SDS011;10739;52.198;20.908;2023-08-06T12:25:07;10.10;;;4.43;;
21162;SDS011;10739;52.198;20.908;2023-08-06T12:27:38;7.00;;;4.88;;
21162;SDS011;10739;52.198;20.908;2023-08-06T12:30:07;4.80;;;4.05;;
21162;SDS011;10739;52.198;20.908;2023-08-06T12:32:34;7.88;;;4.47;;
21162;SDS011;10739;52.198;20.908;2023-08-06T12:35:02;7.75;;;4.78;;
21162;SDS011;10739;52.198;20.908;2023-08-06T12:37:30;7.85;;;4.45;;
21162;SDS011;10739;52.198;20.908;2023-08-06T12:39:56;7.85;;;5.03;;
21162;SDS011;10739;52.198;20.908;2023-08-06T12:42:22;12.30;;;5.35;;
21162;SDS011;10739;52.198;20.908;2023-08-06T12:44:49;7.28;;;4.90;;
21162;SDS011;10739;52.198;20.908;2023-08-06T12:47:16;6.28;;;5.47;;
21162;SDS011;10739;52.198;20.908;2023-08-06T12:49:43;11.63;;;5.15;;
21162;SDS011;10739;52.198;20.908;2023-08-06T12:52:09;6.65;;;5.13;;
21162;SDS011;10739;52.198;20.908;2023-08-06T12:54:38;9.73;;;5.00;;
21162;SDS011;10739;52.198;20.908;2023-08-06T12:57:04;5.97;;;4.78;;
21162;SDS011;10739;52.198;20.908;2023-08-06T12:59:31;6.00;;;4.93;;
21162;SDS011;10739;52.198;20.908;2023-08-06T13:01:59;9.02;;;4.95;;
21162;SDS011;10739;52.198;20.908;2023-08-06T13:04:26;7.45;;;5.38;;
21162;SDS011;10739;52.198;20.908;2023-08-06T13:06:53;10.38;;;5.45;;
21162;SDS011;10739;52.198;20.908;2023-08-06T13:09:19;9.80;;;4.78;;
21162;SDS011;10739;52.198;20.908;2023-08-06T13:11:46;8.15;;;4.32;;
21162;SDS011;10739;52.198;20.908;2023-08-06T13:14:15;8.30;;;4.90;;
21162;SDS011;10739;52.198;20.908;2023-08-06T13:16:42;9.15;;;5.05;;
21162;SDS011;10739;52.198;20.908;2023-08-06T13:19:10;9.55;;;5.07;;
21162;SDS011;10739;52.198;20.908;2023-08-06T13:24:06;10.95;;;4.32;;
21162;SDS011;10739;52.198;20.908;2023-08-06T13:26:33;9.25;;;3.95;;
21162;SDS011;10739;52.198;20.908;2023-08-06T13:29:00;8.05;;;4.97;;
21162;SDS011;10739;52.198;20.908;2023-08-06T13:31:27;10.50;;;3.90;;
21162;SDS011;10739;52.198;20.908;2023-08-06T13:33:54;5.95;;;3.88;;
21162;SDS011;10739;52.198;20.908;2023-08-06T13:36:23;4.85;;;4.05;;
21162;SDS011;10739;52.198;20.908;2023-08-06T13:38:52;6.57;;;3.80;;
21162;SDS011;10739;52.198;20.908;2023-08-06T13:41:19;6.68;;;4.32;;
21162;SDS011;10739;52.198;20.908;2023-08-06T13:43:45;6.10;;;4.35;;
21162;SDS011;10739;52.198;20.908;2023-08-06T13:46:12;10.48;;;4.47;;
21162;SDS011;10739;52.198;20.908;2023-08-06T13:48:45;7.15;;;4.32;;
21162;SDS011;10739;52.198;20.908;2023-08-06T13:51:14;7.53;;;4.78;;
21162;SDS011;10739;52.198;20.908;2023-08-06T13:53:40;5.40;;;4.85;;
21162;SDS011;10739;52.198;20.908;2023-08-06T13:56:08;14.00;;;5.40;;
21162;SDS011;10739;52.198;20.908;2023-08-06T13:58:36;5.53;;;4.93;;
21162;SDS011;10739;52.198;20.908;2023-08-06T14:01:03;6.53;;;4.70;;
21162;SDS011;10739;52.198;20.908;2023-08-06T14:03:30;8.50;;;4.57;;
21162;SDS011;10739;52.198;20.908;2023-08-06T14:05:56;5.40;;;4.90;;
21162;SDS011;10739;52.198;20.908;2023-08-06T14:08:23;7.05;;;4.90;;
21162;SDS011;10739;52.198;20.908;2023-08-06T14:10:50;5.18;;;4.68;;
21162;SDS011;10739;52.198;20.908;2023-08-06T14:13:17;5.57;;;4.82;;
21162;SDS011;10739;52.198;20.908;2023-08-06T14:15:44;5.60;;;4.72;;
21162;SDS011;10739;52.198;20.908;2023-08-06T14:18:14;10.38;;;4.82;;
21162;SDS011;10739;52.198;20.908;2023-08-06T14:20:41;8.02;;;4.50;;
21162;SDS011;10739;52.198;20.908;2023-08-06T14:23:08;6.70;;;4.70;;
21162;SDS011;10739;52.198;20.908;2023-08-06T14:25:34;4.70;;;4.30;;
21162;SDS011;10739;52.198;20.908;2023-08-06T14:28:01;6.65;;;4.40;;
21162;SDS011;10739;52.198;20.908;2023-08-06T14:30:27;5.38;;;4.85;;
21162;SDS011;10739;52.198;20.908;2023-08-06T14:32:53;5.78;;;4.07;;
21162;SDS011;10739;52.198;20.908;2023-08-06T14:35:19;5.13;;;4.22;;
21162;SDS011;10739;52.198;20.908;2023-08-06T14:37:47;5.88;;;4.25;;
21162;SDS011;10739;52.198;20.908;2023-08-06T14:40:13;7.88;;;4.53;;
21162;SDS011;10739;52.198;20.908;2023-08-06T14:42:39;8.60;;;3.92;;
21162;SDS011;10739;52.198;20.908;2023-08-06T14:45:05;4.30;;;3.90;;